createdAt,value
2023-03-01T00:01:41.284Z,101755.12
2023-03-01T00:06:48.903Z,101757.48
2023-03-01T00:11:52.770Z,101758.50
2023-03-01T00:16:56.634Z,101761.20
2023-03-01T00:22:00.424Z,101758.48
2023-03-01T00:27:04.330Z,101767.10
2023-03-01T00:32:08.612Z,101756.23
2023-03-01T00:37:12.692Z,101751.31
2023-03-01T00:42:17.978Z,101749.25
2023-03-01T00:47:21.885Z,101729.57
2023-03-01T00:52:25.801Z,101722.77
2023-03-01T00:57:30.274Z,101722.73
2023-03-01T01:02:35.210Z,101719.83
2023-03-01T01:07:39.388Z,101728.78
2023-03-01T01:12:48.522Z,101728.81
2023-03-01T01:17:52.391Z,101722.05
2023-03-01T01:22:56.159Z,101709.33
2023-03-01T01:28:01.029Z,101707.76
2023-03-01T01:33:04.725Z,101705.04
2023-03-01T01:38:08.648Z,101701.64
2023-03-01T01:43:29.059Z,101706.55
2023-03-01T01:48:46.924Z,101699.13
2023-03-01T01:53:55.268Z,101686.62
2023-03-01T01:58:59.179Z,101683.38
2023-03-01T02:04:03.077Z,101679.48
2023-03-01T02:09:12.120Z,101684.36
2023-03-01T02:14:17.163Z,101682.64
2023-03-01T02:19:44.581Z,101676.06
2023-03-01T02:25:06.579Z,101674.33
2023-03-01T02:30:13.641Z,101679.20
2023-03-01T02:35:19.539Z,101682.38
2023-03-01T02:40:23.248Z,101683.58
2023-03-01T02:45:28.350Z,101687.12
2023-03-01T02:50:32.036Z,101684.42
2023-03-01T02:55:35.828Z,101684.59
2023-03-01T03:00:48.228Z,101688.30
2023-03-01T03:05:53.430Z,101690.29
2023-03-01T03:10:57.478Z,101686.88
2023-03-01T03:16:05.011Z,101684.79
2023-03-01T03:21:13.945Z,101685.77
2023-03-01T03:26:25.207Z,101680.48
2023-03-01T03:31:30.005Z,101681.50
2023-03-01T03:36:34.405Z,101675.61
2023-03-01T03:41:38.157Z,101666.86
2023-03-01T03:46:41.805Z,101663.52
2023-03-01T03:51:47.798Z,101653.68
2023-03-01T03:56:51.392Z,101645.22
2023-03-01T04:01:55.153Z,101643.66
2023-03-01T04:06:58.885Z,101642.27
2023-03-01T04:12:02.460Z,101640.71
2023-03-01T04:17:07.204Z,101644.41
2023-03-01T04:22:12.556Z,101644.91
2023-03-01T04:27:16.387Z,101643.60
2023-03-01T04:32:21.703Z,101641.25
2023-03-01T04:37:27.131Z,101636.70
2023-03-01T04:42:31.295Z,101628.91
2023-03-01T04:47:39.265Z,101629.54
2023-03-01T04:52:46.242Z,101642.33
2023-03-01T04:57:49.918Z,101644.15
2023-03-01T05:02:56.743Z,101646.16
2023-03-01T05:08:03.470Z,101645.67
2023-03-01T05:13:07.896Z,101640.08
2023-03-01T05:18:12.714Z,101641.05
2023-03-01T05:23:17.334Z,101642.70
2023-03-01T05:28:21.857Z,101644.41
2023-03-01T05:33:26.599Z,101642.86
2023-03-01T05:38:30.292Z,101640.79
2023-03-01T05:43:36.632Z,101642.90
2023-03-01T05:48:41.041Z,101645.98
2023-03-01T05:53:45.747Z,101648.58
2023-03-01T05:58:51.147Z,101655.27
2023-03-01T06:03:55.332Z,101656.48
2023-03-01T06:08:59.013Z,101661.89
2023-03-01T06:14:03.072Z,101664.80
2023-03-01T06:19:06.862Z,101659.61
2023-03-01T06:24:10.654Z,101648.48
2023-03-01T06:29:15.022Z,101642.59
2023-03-01T06:34:18.724Z,101639.20
2023-03-01T06:39:23.955Z,101627.39
2023-03-01T06:44:28.407Z,101620.96
2023-03-01T06:49:32.072Z,101623.55
2023-03-01T06:54:35.662Z,101623.08
2023-03-01T06:59:39.376Z,101628.35
2023-03-01T07:04:43.822Z,101626.96
2023-03-01T07:09:50.847Z,101633.38
2023-03-01T07:14:55.088Z,101636.02
2023-03-01T07:19:58.825Z,101631.15
2023-03-01T07:25:05.596Z,101625.26
2023-03-01T07:30:12.354Z,101619.02
2023-03-01T07:35:17.216Z,101619.83
2023-03-01T07:40:23.260Z,101629.36
2023-03-01T07:45:27.644Z,101631.46
2023-03-01T07:50:32.294Z,101627.27
2023-03-01T07:55:37.714Z,101625.63
2023-03-01T08:00:41.672Z,101612.50
2023-03-01T08:05:47.786Z,101603.23
2023-03-01T08:10:53.617Z,101598.23
2023-03-01T08:16:12.508Z,101602.59
2023-03-01T08:21:21.097Z,101604.79
2023-03-01T08:26:25.331Z,101601.11
2023-03-01T08:31:38.072Z,101596.23
2023-03-01T08:36:45.783Z,101598.73
2023-03-01T08:41:50.596Z,101592.23
2023-03-01T08:46:55.933Z,101602.92
2023-03-01T08:52:02.398Z,101611.38
2023-03-01T08:57:06.919Z,101610.08
2023-03-01T09:02:17.226Z,101597.67
2023-03-01T09:07:21.789Z,101594.25
2023-03-01T09:12:27.572Z,101589.51
2023-03-01T09:17:31.636Z,101586.30
2023-03-01T09:22:37.006Z,101585.63
2023-03-01T09:27:41.091Z,101579.70
2023-03-01T09:32:46.129Z,101576.98
2023-03-01T09:37:52.343Z,101585.61
2023-03-01T09:43:07.585Z,101579.02
2023-03-01T09:48:27.606Z,101574.33
2023-03-01T09:53:37.895Z,101567.52
2023-03-01T09:59:01.043Z,101567.49
2023-03-01T10:04:29.857Z,101576.55
2023-03-01T10:09:36.547Z,101580.43
2023-03-01T10:14:59.585Z,101572.62
2023-03-01T10:20:25.205Z,101565.58
2023-03-01T10:25:41.812Z,101555.97
2023-03-01T10:30:47.305Z,101550.05
2023-03-01T10:35:51.891Z,101545.71
2023-03-01T10:41:02.725Z,101535.83
2023-03-01T10:46:29.288Z,101534.63
2023-03-01T10:51:36.168Z,101536.57
2023-03-01T10:57:01.941Z,101535.89
2023-03-01T11:02:31.940Z,101528.62
2023-03-01T11:07:55.321Z,101524.59
2023-03-01T11:13:27.162Z,101516.70
2023-03-01T11:18:46.289Z,101503.27
2023-03-01T11:23:56.076Z,101506.73
2023-03-01T11:29:04.173Z,101507.34
2023-03-01T11:34:20.641Z,101501.02
2023-03-01T11:39:53.846Z,101494.68
2023-03-01T11:45:01.501Z,101495.17
2023-03-01T11:50:16.756Z,101497.52
2023-03-01T11:55:48.848Z,101499.56
2023-03-01T12:01:15.504Z,101493.89
2023-03-01T12:06:29.081Z,101487.23
2023-03-01T12:11:53.048Z,101483.14
2023-03-01T12:17:07.260Z,101469.10
2023-03-01T12:22:27.326Z,101462.29
2023-03-01T12:27:47.573Z,101456.86
2023-03-01T12:33:25.475Z,101452.63
2023-03-01T12:38:51.744Z,101446.97
2023-03-01T12:44:07.431Z,101449.27
2023-03-01T12:49:21.044Z,101438.09
2023-03-01T12:54:30.247Z,101428.46
2023-03-01T13:00:10.328Z,101416.65
2023-03-01T13:05:35.435Z,101413.40
2023-03-01T13:10:55.962Z,101408.04
2023-03-01T13:16:23.031Z,101403.16
2023-03-01T13:21:33.261Z,101404.77
2023-03-01T13:27:09.526Z,101407.95
2023-03-01T13:32:44.514Z,101399.93
2023-03-01T13:37:49.189Z,101398.05
2023-03-01T13:43:04.693Z,101395.02
2023-03-01T13:48:20.683Z,101383.70
2023-03-01T13:53:27.888Z,101378.91
2023-03-01T13:58:35.665Z,101375.23
2023-03-01T14:03:44.005Z,101369.91
2023-03-01T14:08:50.572Z,101359.70
2023-03-01T14:14:16.585Z,101355.52
2023-03-01T14:19:34.702Z,101348.85
2023-03-01T14:24:42.432Z,101341.20
2023-03-01T14:29:57.229Z,101328.48
2023-03-01T14:35:01.798Z,101323.70
2023-03-01T14:40:06.613Z,101322.54
2023-03-01T14:45:14.338Z,101320.30
2023-03-01T14:50:43.311Z,101311.27
2023-03-01T14:56:01.703Z,101300.00
2023-03-01T15:01:06.326Z,101302.33
2023-03-01T15:06:10.688Z,101311.71
2023-03-01T15:11:30.944Z,101310.64
2023-03-01T15:16:35.809Z,101306.65
2023-03-01T15:21:41.134Z,101308.30
2023-03-01T15:26:53.024Z,101308.12
2023-03-01T15:31:59.941Z,101309.47
2023-03-01T15:37:07.250Z,101306.05
2023-03-01T15:42:32.526Z,101303.18
2023-03-01T15:47:37.797Z,101298.17
2023-03-01T15:52:42.925Z,101303.35
2023-03-01T15:57:47.918Z,101310.23
2023-03-01T16:02:52.214Z,101322.61
2023-03-01T16:08:01.085Z,101334.77
2023-03-01T16:13:05.857Z,101335.27
2023-03-01T16:18:12.421Z,101336.48
2023-03-01T16:23:22.263Z,101332.34
2023-03-01T16:28:29.308Z,101336.46
2023-03-01T16:33:36.262Z,101332.82
2023-03-01T16:38:42.892Z,101335.42
2023-03-01T16:43:52.686Z,101339.75
2023-03-01T16:48:58.329Z,101345.48
2023-03-01T16:54:05.988Z,101352.00
2023-03-01T16:59:10.773Z,101352.69
2023-03-01T17:04:15.562Z,101356.84
2023-03-01T17:09:30.596Z,101356.87
2023-03-01T17:14:40.326Z,101349.52
2023-03-01T17:19:46.181Z,101349.61
2023-03-01T17:24:50.804Z,101353.90
2023-03-01T17:29:59.949Z,101358.83
2023-03-01T17:35:06.961Z,101358.08
2023-03-01T17:40:15.524Z,101359.61
2023-03-01T17:45:20.514Z,101358.80
2023-03-01T17:50:26.919Z,101351.67
2023-03-01T17:55:35.467Z,101354.61
2023-03-01T18:00:40.722Z,101358.49
2023-03-01T18:05:45.466Z,101347.31
2023-03-01T18:11:00.661Z,101352.58
2023-03-01T18:16:10.602Z,101354.49
2023-03-01T18:21:19.039Z,101353.29
2023-03-01T18:26:25.604Z,101347.91
2023-03-01T18:31:34.122Z,101345.88
2023-03-01T18:36:41.400Z,101347.66
2023-03-01T18:41:48.402Z,101353.66
2023-03-01T18:46:58.672Z,101355.46
2023-03-01T18:52:06.483Z,101353.36
2023-03-01T18:57:13.104Z,101351.35
2023-03-01T19:02:17.852Z,101344.58
2023-03-01T19:07:23.001Z,101333.73
2023-03-01T19:12:29.482Z,101333.75
2023-03-01T19:17:37.517Z,101334.92
2023-03-01T19:22:43.558Z,101326.01
2023-03-01T19:27:50.087Z,101322.31
2023-03-01T19:32:58.635Z,101326.33
2023-03-01T19:38:06.545Z,101329.77
2023-03-01T19:43:12.576Z,101332.48
2023-03-01T19:48:20.742Z,101329.55
2023-03-01T19:53:30.603Z,101330.20
2023-03-01T19:58:39.356Z,101338.60
2023-03-01T20:03:44.568Z,101337.94
2023-03-01T20:08:52.215Z,101338.59
2023-03-01T20:13:59.959Z,101340.55
2023-03-01T20:19:08.660Z,101341.26
2023-03-01T20:24:14.785Z,101337.42
2023-03-01T20:29:21.055Z,101332.16
2023-03-01T20:34:28.218Z,101326.38
2023-03-01T20:39:34.914Z,101324.59
2023-03-01T20:44:44.999Z,101327.05
2023-03-01T20:49:53.319Z,101323.93
2023-03-01T20:54:58.935Z,101331.63
2023-03-01T21:00:05.678Z,101330.37
2023-03-01T21:05:11.101Z,101329.27
2023-03-01T21:10:20.208Z,101325.45
2023-03-01T21:15:32.281Z,101323.83
2023-03-01T21:20:43.142Z,101327.55
2023-03-01T21:25:48.762Z,101334.23
2023-03-01T21:30:52.547Z,101329.43
2023-03-01T21:36:04.534Z,101325.74
2023-03-01T21:41:16.680Z,101320.16
2023-03-01T21:46:25.979Z,101312.11
2023-03-01T21:51:30.896Z,101315.95
2023-03-01T21:56:39.340Z,101316.29
2023-03-01T22:01:43.561Z,101314.22
2023-03-01T22:06:47.907Z,101311.94
2023-03-01T22:11:54.943Z,101311.85
2023-03-01T22:16:59.536Z,101310.96
2023-03-01T22:22:04.091Z,101307.55
2023-03-01T22:27:07.921Z,101313.94
2023-03-01T22:32:11.834Z,101312.77
2023-03-01T22:37:16.982Z,101299.22
2023-03-01T22:42:20.679Z,101297.16
2023-03-01T22:47:24.376Z,101298.73
2023-03-01T22:52:28.180Z,101299.54
2023-03-01T22:57:32.054Z,101296.71
2023-03-01T23:02:38.337Z,101292.73
2023-03-01T23:07:42.372Z,101293.64
2023-03-01T23:12:46.278Z,101297.77
2023-03-01T23:17:50.221Z,101292.83
2023-03-01T23:22:53.910Z,101299.58
2023-03-01T23:27:57.501Z,101303.45
2023-03-01T23:33:01.396Z,101301.27
2023-03-01T23:38:05.357Z,101299.74
2023-03-01T23:43:08.931Z,101305.05
2023-03-01T23:48:13.833Z,101304.76
2023-03-01T23:53:19.019Z,101303.10
2023-03-01T23:58:28.812Z,101305.00
